EDT,Max TemperatureF,Mean TemperatureF,Min TemperatureF,Max Dew PointF,MeanDew PointF,Min DewpointF,Max Humidity, Mean Humidity, Min Humidity, Max Sea Level PressureIn, Mean Sea Level PressureIn, Min Sea Level PressureIn, Max VisibilityMiles, Mean VisibilityMiles, Min VisibilityMiles, Max Wind SpeedMPH, Mean Wind SpeedMPH, Max Gust SpeedMPH,PrecipitationIn, CloudCover, Events, WindDirDegrees
2012-9-1,80,76,71,75,71,70,100,89,70,30.12,30.08,30.01,10,9,2,17,2,28,0.55,4,Rain-Thunderstorm,165
2012-9-2,78,74,69,73,71,70,100,96,78,30.02,29.95,29.87,10,6,1,13,5,22,0.74,6,Rain-Thunderstorm,106
2012-9-3,75,72,69,73,71,70,100,96,83,29.93,29.90,29.87,10,8,2,13,5,18,0.04,7,Rain,111
2012-9-4,86,78,69,73,71,68,100,88,55,29.92,29.89,29.85,10,6,1,9,2,,0.05,5,Rain,322
2012-9-5,82,72,62,73,67,63,100,87,62,29.92,29.88,29.83,10,6,0,7,1,,0.00,3,Fog-Rain,196
2012-9-6,87,73,59,72,65,59,100,83,40,29.96,29.93,29.89,10,8,1,8,2,,0.10,2,Rain,268
2012-9-7,86,74,62,75,66,61,100,88,51,29.95,29.88,29.71,10,6,0,20,3,30,1.09,4,Fog-Rain-Thunderstorm,204
2012-9-8,71,62,53,64,55,48,100,79,46,29.91,29.81,29.66,10,9,2,16,7,29,0.98,6,Rain,317
2012-9-9,73,62,50,55,52,48,100,81,44,30.10,29.97,29.90,10,10,1,13,2,16,0.00,3,,336
2012-9-10,73,60,46,55,49,41,100,74,33,30.24,30.18,30.10,10,9,2,6,1,,0.00,0,,41
2012-9-11,78,62,46,52,48,45,100,65,30,30.28,30.23,30.19,10,10,7,8,2,,0.00,0,,182
2012-9-12,82,66,51,59,53,50,94,65,35,30.29,30.24,30.21,10,10,4,12,3,20,0.00,1,,210
2012-9-13,82,70,59,61,58,50,100,71,32,30.31,30.26,30.22,10,10,5,8,2,,0.00,5,,202
2012-9-14,66,57,48,61,53,45,100,89,49,30.32,30.27,30.21,10,8,2,13,3,24,0.01,3,Rain,355
2012-9-15,71,56,42,54,46,41,100,73,35,30.35,30.28,30.19,10,9,2,7,1,,0.00,0,,24
2012-9-16,77,62,46,52,46,39,100,69,28,30.19,30.13,30.04,10,10,7,6,1,,0.00,0,,106
2012-9-17,77,64,50,63,56,48,100,80,50,30.05,29.93,29.78,10,9,3,9,3,,0.00,4,,183
2012-9-18,66,55,42,63,52,37,100,77,45,30.02,29.79,29.64,10,8,1,17,7,28,0.45,5,Rain,313
2012-9-19,68,52,37,43,37,32,100,63,28,30.17,30.10,30.03,10,10,10,12,3,,0.00,0,,217
2012-9-20,73,60,46,54,45,37,100,63,38,30.05,29.97,29.91,10,10,10,17,8,26,0.00,2,,219
2012-9-21,68,56,44,52,46,34,100,79,30,30.00,29.92,29.73,10,9,1,12,5,23,1.20,3,Rain-Thunderstorm,227
2012-9-22,64,52,41,54,45,28,100,79,33,30.15,29.93,29.73,10,8,0,28,7,41,0.01,5,Fog,280
2012-9-23,60,48,37,43,37,32,100,72,34,30.25,30.19,30.15,10,10,10,13,5,20,0.00,1,,294
2012-9-24,66,50,33,41,35,32,100,65,28,30.26,30.17,30.04,10,10,4,17,3,23,0.00,0,,215
2012-9-25,62,53,44,59,49,37,100,80,55,30.05,29.99,29.95,10,9,2,16,5,18,0.02,5,Rain-Thunderstorm,187
2012-9-26,69,63,57,64,62,57,100,96,73,30.11,30.03,29.95,10,7,0,16,7,26,0.60,8,Fog-Rain-Thunderstorm,236
2012-9-27,64,58,51,63,59,52,100,99,88,30.17,30.13,30.09,10,5,0,10,3,,0.56,8,Fog-Rain,51
2012-9-28,69,60,51,55,52,50,100,83,52,30.16,30.11,30.05,10,7,0,9,3,,0.00,7,Fog,104
2012-9-29,71,58,44,52,47,37,100,75,31,30.10,30.04,29.95,10,9,2,10,2,17,0.00,1,,310
2012-9-30,68,55,42,52,44,37,100,73,33,29.95,29.91,29.87,10,10,5,12,5,18,0.00,1,,11